Messwerte Pereira

Temperatur

Temperatur
°C
1510941600 13.00 13.00 25
1510945200 14.00 14.00 26
1510948800 15.00 15.00
1510952400 16.00 16.00 25
1510956000 17.00 17.00 25
1510959600 18.00 18.00 23
1510963200 19.00 19.00 22
1510966800 20.00 20.00 19
1510970400 21.00 21.00 20
1510974000 22.00 22.00 20
1510977600 23.00 23.00 20
1510981200 0.00 0.00 18
1510984800 1.00 1.00 18
1510988400 2.00 2.00
1510992000 3.00 3.00
1510995600 4.00 4.00
1510999200 5.00 5.00 18
1511002800 6.00 6.00 18
1511006400 7.00 7.00 19
1511010000 8.00 8.00 20
1511013600 9.00 9.00 21
1511017200 10.00 10.00 21
1511020800 11.00 11.00 24
1511024400 12.00 12.00 24

Aktuellste Messwerte

Wettercharakter
Wetter: wechselnd bewölkt
Temperatur
24 °C
Feuchtigkeit
80 %
Wind
15 km/hWindrichtung: West
Luftdruck
1018 hPa
Messzeit: 18. November 2017, 12.00Datenquelle: METAR

Weitere Messstationen in der Nähe

Messstation Temperatur Entfernung
Rio Negro 21 °C 149 km
Cali 27 °C 158 km
Bogotá 20 °C 176 km
Bucaramanga 24 °C 377 km
Cúcuta 31 °C 495 km

Wind

Windrichtung Böen Mittelwind
° km/h km/h
1510941600 13.00 12.00 - 13.00 320° 5
1510945200 14.00 13.00 - 14.00 210° 5
1510948800 15.00 14.00 - 15.00 250° 5
1510952400 16.00 15.00 - 16.00 90° 10
1510956000 17.00 16.00 - 17.00 80° 10
1510959600 18.00 17.00 - 18.00 250° 5
1510963200 19.00 18.00 - 19.00 240° 10
1510966800 20.00 19.00 - 20.00 320° 5
1510970400 21.00 20.00 - 21.00 5
1510974000 22.00 21.00 - 22.00 5
1510977600 23.00 22.00 - 23.00 310° 5
1510981200 0.00 23.00 - 0.00 300° 5
1510984800 1.00 0.00 - 1.00 270° 5
1510988400 2.00 1.00 - 2.00
1510992000 3.00 2.00 - 3.00
1510995600 4.00 3.00 - 4.00
1510999200 5.00 4.00 - 5.00 70° 5
1511002800 6.00 5.00 - 6.00 70° 10
1511006400 7.00 6.00 - 7.00 70° 5
1511010000 8.00 7.00 - 8.00 5
1511013600 9.00 8.00 - 9.00 220° 5
1511017200 10.00 9.00 - 10.00 260° 10
1511020800 11.00 10.00 - 11.00 250° 10
1511024400 12.00 11.00 - 12.00 270° 15

Ihre Wetterstation

Fehlt Ihre Wetterstation auf unserem Portal?

Schreiben Sie an network@meteonews.ch

Klima

Wann ist es am wärmsten? Wann regnet es am wenigsten? Unsere Klimadaten geben Auskunft.